Azara, Argentina
Current Conditions -  °F | °C
As of 9:00 AM on Tuesday 21 Oct 2014 (Local Time) from SARP Reporting Station
Clear Clear  
Wind Chill: 68°   Ceiling: Unl
Heat Index: 68°   Visibility: 6mi
Dew Point: 54°   Wind: 10mph
Humidity: 60%   Direction: 90°E
Pressure: 30.15"   Gusts: NA
Location:  28.07°S, 55.68°W
Report Text: SARP 211200Z 09009KT CAVOK 20/12 Q1021
Loading
Personal Weather Stations






























Interactive Weather Map
Tropical Storm Tracking
New forecast layout! Learn more

10-Day Weather Forecast

Advertisements
Track Severe Weather on mobile